Data for 01/22/2014

Time Sea-Level Adjusted Pressure Absolute Pressure Temperature Relative Humidity Dew Point   
(mb) (inHg) (mb) (inHg) (C) (F) (%) (C) (F)
00:05 1024 30.24 853 25.19 -0.9 30.4 54 -9 15.7
00:10 1024 30.24 853 25.19 -0.7 30.7 52 -9.3 15.2
00:15 1024 30.24 853 25.19 -0.2 31.7 51 -9.1 15.6
00:20 1024 30.24 853 25.19 -0.3 31.5 51 -9.2 15.5
00:25 1024 30.24 853 25.19 0 32 50 -9.3 15.2
00:30 1024 30.24 853 25.19 0.1 32.2 50 -9.2 15.4
00:35 1023 30.21 853 25.19 0.1 32.2 50 -9.1 15.6
00:40 1023 30.21 853 25.19 0.1 32.2 49 -9.5 15
00:45 1023 30.21 853 25.19 0.4 32.8 49 -9 15.7
00:50 1023 30.21 853 25.19 0.3 32.5 50 -8.9 16
00:55 1023 30.21 853 25.19 -0.1 31.8 51 -9.2 15.5
01:00 1023 30.21 853 25.19 -0.4 31.4 52 -8.9 15.9
01:05 1023 30.21 853 25.19 -0.7 30.7 54 -8.9 15.9
01:10 1023 30.21 852 25.16 -0.7 30.8 53 -9.1 15.7
01:15 1023 30.21 852 25.16 -0.6 30.9 54 -8.9 16.1
01:20 1023 30.21 852 25.16 -0.9 30.4 56 -8.7 16.4
01:25 1023 30.21 852 25.16 -1.1 30 55 -9 15.9
01:30 1023 30.21 852 25.16 -1.1 29.9 55 -9 15.9
01:35 1023 30.21 852 25.16 -1 30.1 55 -9.1 15.7
01:40 1023 30.21 852 25.16 -1 30.3 55 -8.9 16
01:45 1023 30.21 852 25.16 -1.1 30.1 56 -8.8 16.1
01:50 1023 30.21 852 25.16 -0.9 30.4 55 -8.9 16.1
01:55 1023 30.21 852 25.16 -0.8 30.6 54 -8.9 16
02:00 1023 30.21 852 25.16 -0.6 30.9 53 -9 15.7
02:05 1023 30.21 852 25.16 0 32 51 -9 15.9
02:10 1023 30.21 852 25.16 0 32.1 52 -8.6 16.5
02:15 1023 30.21 852 25.16 -0.2 31.7 53 -8.6 16.5
02:20 1023 30.21 852 25.16 -0.4 31.3 54 -8.7 16.3
02:25 1022 30.18 852 25.16 -0.5 31.2 54 -8.7 16.4
02:30 1022 30.18 852 25.16 -0.8 30.6 55 -8.8 16.2
02:35 1022 30.18 852 25.16 -1 30.3 55 -8.9 15.9
02:40 1022 30.18 852 25.16 -0.9 30.4 54 -9 15.8
02:45 1022 30.18 851 25.13 -1 30.3 55 -8.8 16.2
02:50 1022 30.18 851 25.13 -1.1 30 55 -9.1 15.7
02:55 1022 30.18 851 25.13 -0.9 30.3 55 -8.9 16
03:00 1022 30.18 851 25.13 -1.2 29.9 56 -8.9 16
03:05 1022 30.18 851 25.13 -1.3 29.7 56 -8.8 16.1
03:10 1022 30.18 851 25.13 -1.4 29.5 57 -8.9 16
03:15 1022 30.18 851 25.13 -1.4 29.4 57 -8.9 16
03:20 1022 30.18 851 25.13 -1.3 29.6 56 -9 15.8
03:25 1022 30.18 851 25.13 -1 30.1 55 -9 15.8
03:30 1022 30.18 851 25.13 -0.9 30.3 54 -9.1 15.7
03:35 1022 30.18 851 25.13 -0.6 31 53 -8.9 15.9
03:40 1022 30.18 851 25.13 -0.7 30.8 55 -8.7 16.3
03:45 1022 30.18 851 25.13 -1.5 29.3 59 -8.5 16.7
03:50 1022 30.18 851 25.13 -2.1 28.1 60 -8.8 16.1
03:55 1022 30.18 851 25.13 -2 28.5 58 -9.2 15.4
04:00 1022 30.18 851 25.13 -1.4 29.5 57 -8.8 16.2
04:05 1022 30.18 851 25.13 -1.3 29.6 57 -8.8 16.2
04:10 1022 30.18 851 25.13 -1.3 29.7 57 -8.9 16.1
04:15 1022 30.18 851 25.13 -1.3 29.7 57 -8.7 16.3
04:20 1022 30.18 851 25.13 -1.4 29.5 57 -8.8 16.1
04:25 1022 30.18 851 25.13 -1.4 29.5 57 -8.8 16.2
04:30 1022 30.18 851 25.13 -1.5 29.2 58 -8.8 16.2
04:35 1022 30.18 851 25.13 -1.6 29.1 59 -8.7 16.4
04:40 1022 30.18 851 25.13 -1.9 28.7 59 -8.7 16.3
04:45 1022 30.18 851 25.13 -2 28.4 60 -8.7 16.3
04:50 1022 30.18 851 25.13 -2.1 28.2 60 -8.8 16.1
04:55 1022 30.18 851 25.13 -2.2 28 61 -8.7 16.3
05:00 1022 30.18 851 25.13 -2.3 27.9 62 -8.7 16.4
05:05 1022 30.18 851 25.13 -2 28.5 60 -8.8 16.1
05:10 1022 30.18 851 25.13 -1.4 29.4 58 -8.6 16.5
05:15 1022 30.18 851 25.13 -1.3 29.7 59 -8.3 17.1
05:20 1022 30.18 851 25.13 -1.8 28.8 62 -8.1 17.4
05:25 1022 30.18 851 25.13 -1.9 28.6 62 -8.3 17.1
05:30 1022 30.18 851 25.13 -1.9 28.6 62 -8.2 17.3
05:35 1022 30.18 851 25.13 -1.9 28.6 61 -8.4 16.8
05:40 1022 30.18 851 25.13 -1.4 29.5 59 -8.3 17
05:45 1022 30.18 851 25.13 -1.5 29.3 63 -7.7 18.1
05:50 1022 30.18 851 25.13 -1.8 28.7 63 -8 17.6
05:55 1022 30.18 851 25.13 -2 28.3 64 -8 17.5
06:00 1022 30.18 851 25.13 -2 28.3 63 -8.3 17.1
06:05 1022 30.18 851 25.13 -2.1 28.2 64 -8 17.6
06:10 1022 30.18 851 25.13 -2.4 27.6 65 -8.2 17.3
06:15 1022 30.18 851 25.13 -2.4 27.6 65 -8.1 17.4
06:20 1022 30.18 851 25.13 -2.3 27.9 64 -8.2 17.3
06:25 1021 30.15 851 25.13 -1.9 28.6 65 -7.5 18.4
06:30 1022 30.18 851 25.13 -1.5 29.4 60 -8.2 17.2
06:35 1022 30.18 851 25.13 -1.3 29.6 61 -7.9 17.8
06:40 1021 30.15 851 25.13 -1.5 29.3 62 -7.8 17.9
06:45 1021 30.15 851 25.13 -2 28.4 64 -8 17.6
06:50 1021 30.15 851 25.13 -2.2 28 65 -8 17.7
06:55 1021 30.15 851 25.13 -2.1 28.2 64 -8.1 17.4
07:00 1021 30.15 851 25.13 -1.8 28.7 62 -8.1 17.3
07:05 1021 30.15 851 25.13 -1.6 29 61 -8.1 17.4
07:10 1021 30.15 851 25.13 -1.5 29.3 61 -8 17.5
07:15 1021 30.15 850 25.1 -1.5 29.3 61 -8.2 17.3
07:20 1021 30.15 850 25.1 -1.6 29 61 -8.3 17.1
07:25 1021 30.15 850 25.1 -1.8 28.7 62 -8.2 17.2
07:30 1021 30.15 850 25.1 -1.8 28.8 62 -8.1 17.3
07:35 1021 30.15 850 25.1 -1.9 28.6 62 -8.3 17.1
07:40 1021 30.15 850 25.1 -1.8 28.8 60 -8.4 16.8
07:45 1021 30.15 850 25.1 -1.7 29 61 -8.2 17.3
07:50 1021 30.15 850 25.1 -1.7 29 61 -8.2 17.2
07:55 1021 30.15 850 25.1 -1.6 29.1 61 -8.2 17.3
08:00 1021 30.15 850 25.1 -1.6 29.1 61 -8.2 17.2
08:05 1021 30.15 850 25.1 -1.5 29.3 60 -8.3 17.1
08:10 1021 30.15 850 25.1 -1.4 29.5 59 -8.5 16.7
08:15 1021 30.15 850 25.1 -1.2 29.8 60 -8 17.7
08:20 1021 30.15 850 25.1 -1.5 29.3 63 -7.7 18.1
08:25 1021 30.15 850 25.1 -1.8 28.8 65 -7.6 18.3
08:30 1021 30.15 850 25.1 -2 28.4 66 -7.6 18.3
08:35 1021 30.15 850 25.1 -1.8 28.8 64 -7.7 18.2
08:40 1021 30.15 850 25.1 -1.7 28.9 64 -7.6 18.4
08:45 1021 30.15 850 25.1 -1.6 29.1 64 -7.6 18.2
08:50 1021 30.15 850 25.1 -1.5 29.3 63 -7.6 18.4
08:55 1021 30.15 850 25.1 -1.5 29.4 63 -7.6 18.4
09:00 1021 30.15 850 25.1 -1.4 29.4 62 -7.7 18.1
09:05 1021 30.15 850 25.1 -1.4 29.5 61 -7.9 17.9
09:10 1021 30.15 850 25.1 -1.4 29.6 61 -8 17.6
09:15 1021 30.15 850 25.1 -1.3 29.6 60 -8.1 17.5
09:20 1021 30.15 850 25.1 -1.2 29.9 59 -8.2 17.3
09:25 1021 30.15 850 25.1 -0.9 30.3 57 -8.3 17
09:30 1021 30.15 850 25.1 -0.7 30.8 57 -8.3 17.1
09:35 1021 30.15 850 25.1 -0.5 31 57 -8.1 17.4
09:40 1021 30.15 850 25.1 -0.4 31.3 58 -7.7 18.1
09:45 1021 30.15 850 25.1 -0.3 31.4 59 -7.5 18.6
09:50 1021 30.15 851 25.13 -0.4 31.4 61 -6.9 19.5
09:55 1021 30.15 851 25.13 -0.6 30.9 63 -6.8 19.8
10:00 1022 30.18 851 25.13 -0.8 30.6 64 -6.8 19.8
10:05 1022 30.18 851 25.13 -0.9 30.4 65 -6.6 20.1
10:10 1022 30.18 851 25.13 -0.9 30.3 66 -6.4 20.4
10:15 1022 30.18 851 25.13 -1.1 30 68 -6.3 20.7
10:20 1022 30.18 851 25.13 -1.2 29.8 71 -5.8 21.6
10:25 1022 30.18 851 25.13 -1.3 29.6 72 -5.8 21.6
10:30 1022 30.18 851 25.13 -1.3 29.6 74 -5.4 22.3
10:35 1022 30.18 851 25.13 -1.2 29.8 76 -4.9 23.2
10:40 1022 30.18 851 25.13 -1.5 29.3 80 -4.5 23.9
10:45 1022 30.18 851 25.13 -1.5 29.3 81 -4.4 24
10:50 1022 30.18 851 25.13 -1.7 28.9 83 -4.3 24.2
10:55 1022 30.18 851 25.13 -2 28.5 84 -4.3 24.3
11:00 1022 30.18 851 25.13 -2.1 28.2 85 -4.3 24.3
11:05 1022 30.18 851 25.13 -2.2 28.1 87 -4.1 24.6
11:10 1022 30.18 851 25.13 -2.2 28 87 -4.1 24.6
11:15 1022 30.18 851 25.13 -2.3 27.9 88 -4 24.8
11:20 1022 30.18 851 25.13 -2.3 27.9 88 -4 24.9
11:25 1022 30.18 851 25.13 -2.2 28.1 88 -3.9 25
11:30 1022 30.18 851 25.13 -2.1 28.3 88 -3.8 25.2
11:35 1022 30.18 851 25.13 -2 28.3 88 -3.7 25.3
11:40 1022 30.18 851 25.13 -2.1 28.2 89 -3.8 25.2
11:45 1022 30.18 851 25.13 -2.3 27.9 90 -3.7 25.3
11:50 1022 30.18 851 25.13 -2.2 28 91 -3.6 25.6
11:55 1022 30.18 851 25.13 -2.2 28 91 -3.5 25.6
12:00 1022 30.18 851 25.13 -2.3 27.9 91 -3.6 25.6
12:05 1022 30.18 851 25.13 -2.4 27.7 92 -3.6 25.6
12:10 1022 30.18 851 25.13 -2.5 27.5 92 -3.6 25.6
12:15 1021 30.15 851 25.13 -2.3 27.9 92 -3.5 25.7
12:20 1021 30.15 851 25.13 -2.3 27.8 92 -3.5 25.7
12:25 1021 30.15 850 25.1 -2.3 27.8 92 -3.4 25.9
12:30 1021 30.15 850 25.1 -2.3 27.9 92 -3.3 26
12:35 1021 30.15 850 25.1 -2.1 28.3 92 -3.2 26.2
12:40 1021 30.15 850 25.1 -2 28.4 91 -3.2 26.2
12:45 1021 30.15 850 25.1 -2 28.4 92 -3.2 26.3
12:50 1021 30.15 850 25.1 -2 28.4 93 -3.1 26.5
12:55 1021 30.15 850 25.1 -1.8 28.7 92 -3 26.7
13:00 1021 30.15 850 25.1 -1.7 29 91 -3 26.7
13:05 1021 30.15 850 25.1 -1.6 29.1 92 -2.8 26.9
13:10 1021 30.15 850 25.1 -1.6 29.2 91 -2.9 26.8
13:15 1021 30.15 850 25.1 -1.5 29.4 91 -2.8 27
13:20 1021 30.15 850 25.1 -1.4 29.5 90 -2.8 26.9
13:25 1021 30.15 850 25.1 -1.3 29.6 90 -2.8 27
13:30 1021 30.15 850 25.1 -1.3 29.6 91 -2.7 27.2
13:35 1020 30.12 850 25.1 -1.2 29.9 90 -2.6 27.3
13:40 1020 30.12 850 25.1 -1 30.2 89 -2.6 27.4
13:45 1020 30.12 850 25.1 -0.8 30.5 89 -2.5 27.5
13:50 1020 30.12 850 25.1 -0.8 30.5 89 -2.4 27.7
13:55 1020 30.12 850 25.1 -0.8 30.6 89 -2.3 27.8
14:00 1020 30.12 850 25.1 -0.7 30.8 91 -2.1 28.3
14:05 1020 30.12 850 25.1 -0.4 31.2 90 -1.8 28.7
14:10 1020 30.12 850 25.1 -0.3 31.5 90 -1.8 28.8
14:15 1020 30.12 850 25.1 -0.3 31.4 90 -1.8 28.7
14:20 1020 30.12 850 25.1 -0.2 31.6 90 -1.7 28.9
14:25 1020 30.12 850 25.1 -0.1 31.8 89 -1.8 28.8
14:30 1020 30.12 850 25.1 -0.2 31.7 89 -1.8 28.8
14:35 1020 30.12 850 25.1 -0.3 31.4 89 -2 28.5
14:40 1020 30.12 850 25.1 -0.2 31.6 90 -1.7 28.9
14:45 1020 30.12 850 25.1 0 32 89 -1.7 29
14:50 1020 30.12 850 25.1 0.2 32.4 88 -1.5 29.3
14:55 1021 30.15 850 25.1 0.2 32.4 88 -1.5 29.3
15:00 1021 30.15 850 25.1 0.1 32.1 88 -1.6 29.1
15:05 1021 30.15 850 25.1 0.1 32.2 88 -1.6 29.1
15:10 1021 30.15 850 25.1 -0.1 31.8 89 -1.7 28.9
15:15 1021 30.15 850 25.1 -0.3 31.5 88 -2 28.4
15:20 1021 30.15 850 25.1 -0.4 31.3 89 -2 28.4
15:25 1021 30.15 850 25.1 -0.7 30.8 90 -2.1 28.3
15:30 1021 30.15 850 25.1 -1 30.3 90 -2.4 27.6
15:35 1021 30.15 850 25.1 -1 30.2 90 -2.5 27.5
15:40 1021 30.15 850 25.1 -1.3 29.6 92 -2.4 27.6
15:45 1021 30.15 850 25.1 -0.9 30.3 91 -2.2 28
15:50 1021 30.15 850 25.1 -0.6 30.9 89 -2.2 28
15:55 1021 30.15 850 25.1 -0.5 31.1 89 -2.2 28.1
16:00 1021 30.15 850 25.1 -0.9 30.5 90 -2.3 27.8
16:05 1021 30.15 850 25.1 -1.1 30 92 -2.3 27.9
16:10 1021 30.15 851 25.13 -0.9 30.4 91 -2.2 28.1
16:15 1021 30.15 851 25.13 -0.7 30.7 91 -2.1 28.3
16:20 1022 30.18 851 25.13 -0.7 30.7 91 -2 28.3
16:25 1022 30.18 851 25.13 -1 30.2 91 -2.3 27.9
16:30 1022 30.18 851 25.13 -1.3 29.7 89 -2.8 26.9
16:35 1022 30.18 851 25.13 -1.4 29.5 88 -3.2 26.3
16:40 1022 30.18 851 25.13 -1.5 29.4 88 -3.2 26.3
16:45 1022 30.18 851 25.13 -1.5 29.3 88 -3.2 26.2
16:50 1022 30.18 851 25.13 -1.6 29.2 89 -3.2 26.3
16:55 1022 30.18 851 25.13 -1.7 29 88 -3.4 25.9
17:00 1022 30.18 851 25.13 -1.8 28.8 89 -3.4 25.9
17:05 1022 30.18 851 25.13 -1.8 28.8 89 -3.4 25.9
17:10 1022 30.18 851 25.13 -1.8 28.7 88 -3.6 25.6
17:15 1022 30.18 851 25.13 -1.9 28.7 87 -3.7 25.3
17:20 1022 30.18 851 25.13 -1.9 28.7 87 -3.7 25.4
17:25 1022 30.18 851 25.13 -2 28.5 87 -3.8 25.1
17:30 1022 30.18 851 25.13 -2 28.3 86 -4 24.8
17:35 1022 30.18 852 25.16 -2.1 28.2 87 -4 24.8
17:40 1022 30.18 852 25.16 -2.1 28.1 87 -4.1 24.7
17:45 1022 30.18 852 25.16 -2.2 28 87 -4.2 24.5
17:50 1023 30.21 852 25.16 -2.3 27.9 86 -4.4 24.2
17:55 1023 30.21 852 25.16 -2.3 27.8 86 -4.4 24.1
18:00 1023 30.21 852 25.16 -2.3 27.9 86 -4.4 24.1
18:05 1023 30.21 852 25.16 -2.3 27.9 85 -4.4 24
18:10 1023 30.21 852 25.16 -2.3 27.9 84 -4.7 23.5
18:15 1023 30.21 852 25.16 -2.3 27.9 83 -4.9 23.2
18:20 1023 30.21 852 25.16 -2.3 27.9 82 -5 23.1
18:25 1023 30.21 852 25.16 -2.2 28 81 -5.1 22.8
18:30 1023 30.21 852 25.16 -2.2 28 80 -5.3 22.5
18:35 1023 30.21 852 25.16 -2.2 28 80 -5.2 22.6
18:40 1023 30.21 852 25.16 -2.3 27.9 80 -5.4 22.3
18:45 1023 30.21 852 25.16 -2.4 27.8 80 -5.4 22.3
18:50 1023 30.21 853 25.19 -2.4 27.8 79 -5.5 22.1
18:55 1023 30.21 853 25.19 -2.4 27.7 79 -5.5 22
19:00 1023 30.21 853 25.19 -2.4 27.6 80 -5.5 22.1
19:05 1024 30.24 853 25.19 -2.6 27.4 81 -5.4 22.2
19:10 1024 30.24 853 25.19 -2.7 27.1 82 -5.4 22.2
19:15 1024 30.24 853 25.19 -2.9 26.8 82 -5.5 22.1
19:20 1024 30.24 853 25.19 -3 26.5 83 -5.5 22
19:25 1024 30.24 853 25.19 -3.2 26.3 83 -5.6 22
19:30 1024 30.24 853 25.19 -3.3 26.1 84 -5.6 21.9
19:35 1024 30.24 853 25.19 -3.4 25.9 84 -5.7 21.8
19:40 1024 30.24 853 25.19 -3.5 25.8 85 -5.6 21.9
19:45 1024 30.24 853 25.19 -3.5 25.6 85 -5.7 21.8
19:50 1024 30.24 853 25.19 -3.6 25.5 85 -5.7 21.7
19:55 1024 30.24 853 25.19 -3.6 25.6 85 -5.7 21.8
20:00 1024 30.24 853 25.19 -3.5 25.7 85 -5.7 21.8
20:05 1024 30.24 853 25.19 -3.4 25.8 85 -5.7 21.8
20:10 1024 30.24 854 25.22 -3.5 25.8 85 -5.6 21.9
20:15 1024 30.24 854 25.22 -3.5 25.7 85 -5.7 21.7
20:20 1024 30.24 854 25.22 -3.5 25.7 85 -5.7 21.7
20:25 1025 30.27 854 25.22 -3.5 25.7 85 -5.7 21.7
20:30 1025 30.27 854 25.22 -3.5 25.7 85 -5.7 21.7
20:35 1025 30.27 854 25.22 -3.5 25.6 85 -5.8 21.6
20:40 1025 30.27 854 25.22 -3.6 25.6 84 -5.8 21.5
20:45 1025 30.27 854 25.22 -3.5 25.7 84 -5.9 21.5
20:50 1025 30.27 854 25.22 -3.5 25.7 84 -5.8 21.5
20:55 1025 30.27 854 25.22 -3.5 25.7 84 -5.8 21.5
21:00 1025 30.27 854 25.22 -3.6 25.5 85 -5.8 21.5
21:05 1025 30.27 854 25.22 -3.7 25.3 85 -5.8 21.5
21:10 1025 30.27 854 25.22 -3.8 25.2 85 -5.9 21.4
21:15 1025 30.27 854 25.22 -3.8 25.1 85 -5.9 21.3
21:20 1025 30.27 854 25.22 -3.8 25.1 85 -6 21.3
21:25 1025 30.27 854 25.22 -3.8 25.1 84 -6.1 21.1
21:30 1025 30.27 855 25.25 -3.7 25.3 84 -6 21.2
21:35 1025 30.27 855 25.25 -3.6 25.5 84 -6 21.3
21:40 1025 30.27 855 25.25 -3.5 25.7 83 -6 21.1
21:45 1025 30.27 855 25.25 -3.4 25.9 82 -6 21.1
21:50 1025 30.27 855 25.25 -3.2 26.2 81 -6 21.2
21:55 1026 30.3 855 25.25 -3.3 26.1 82 -5.9 21.3
22:00 1026 30.3 855 25.25 -3.4 25.8 82 -6.1 21
22:05 1026 30.3 855 25.25 -3.4 25.8 82 -6 21.1
22:10 1026 30.3 855 25.25 -3.3 26.1 81 -6.2 20.9
22:15 1026 30.3 855 25.25 -3.1 26.5 79 -6.3 20.7
22:20 1026 30.3 855 25.25 -2.8 27 78 -6.2 20.9
22:25 1026 30.3 855 25.25 -2.8 27 79 -6 21.2
22:30 1026 30.3 855 25.25 -2.9 26.8 79 -6 21.2
22:35 1026 30.3 855 25.25 -3 26.6 79 -6.2 20.9
22:40 1026 30.3 855 25.25 -2.9 26.7 79 -6.1 21
22:45 1026 30.3 855 25.25 -3 26.7 79 -6.1 21.1
22:50 1026 30.3 855 25.25 -3.1 26.5 80 -6.1 21
22:55 1026 30.3 856 25.28 -3.2 26.2 80 -6.1 21
23:00 1026 30.3 856 25.28 -3.3 26 81 -6.1 21.1
23:05 1026 30.3 856 25.28 -3.5 25.7 81 -6.2 20.8
23:10 1027 30.33 856 25.28 -3.4 25.8 81 -6.3 20.6
23:15 1027 30.33 856 25.28 -3.5 25.8 81 -6.2 20.9
23:20 1027 30.33 856 25.28 -3.6 25.5 82 -6.3 20.7
23:25 1027 30.33 856 25.28 -3.6 25.5 81 -6.4 20.6
23:30 1027 30.33 856 25.28 -3.7 25.4 82 -6.4 20.6
23:35 1027 30.33 856 25.28 -3.7 25.3 81 -6.5 20.4
23:40 1027 30.33 856 25.28 -3.7 25.4 81 -6.5 20.3
23:45 1027 30.33 856 25.28 -3.7 25.4 81 -6.5 20.2
23:50 1027 30.33 856 25.28 -3.7 25.3 81 -6.6 20.2
23:55 1027 30.33 856 25.28 -3.8 25.1 81 -6.6 20.1
24:00 1027 30.33 856 25.28 -3.9 25 81 -6.7 19.9